Terminal Aerodrome Forecast
Issued by NWS North Platte, NE

Home | Current Version | Previous Version | Text Only | Print | Product List | Glossary On
Versions: 1 2 3 4 5 6 7 8 9 10 11 12 13 14 15 16
000
FTUS43 KLBF 191700
TAFLBF
TAF
KLBF 191724Z 1918/2018 05011KT P6SM BKN200
     FM201000 02004KT P6SM BKN100 BKN300=

USA.gov is the U.S. government's official web portal to all federal, state and local government web resources and services.